sensor_id;sensor_type;location;lat;lon;timestamp;P1;durP1;ratioP1;P2;durP2;ratioP2
58864;SDS011;45702;52.982;6.658;2022-12-19T00:02:17;95.20;;;36.13;;
58864;SDS011;45702;52.982;6.658;2022-12-19T00:04:43;90.82;;;36.65;;
58864;SDS011;45702;52.982;6.658;2022-12-19T00:07:09;93.00;;;36.20;;
58864;SDS011;45702;52.982;6.658;2022-12-19T00:09:35;95.38;;;37.05;;
58864;SDS011;45702;52.982;6.658;2022-12-19T00:12:01;97.82;;;37.42;;
58864;SDS011;45702;52.982;6.658;2022-12-19T00:14:27;93.72;;;36.33;;
58864;SDS011;45702;52.982;6.658;2022-12-19T00:16:53;100.68;;;36.85;;
58864;SDS011;45702;52.982;6.658;2022-12-19T00:19:19;92.65;;;35.50;;
58864;SDS011;45702;52.982;6.658;2022-12-19T00:21:45;96.28;;;36.90;;
58864;SDS011;45702;52.982;6.658;2022-12-19T00:24:11;92.63;;;36.47;;
58864;SDS011;45702;52.982;6.658;2022-12-19T00:26:38;91.38;;;35.40;;
58864;SDS011;45702;52.982;6.658;2022-12-19T00:29:05;97.13;;;37.00;;
58864;SDS011;45702;52.982;6.658;2022-12-19T00:31:32;86.82;;;33.92;;
58864;SDS011;45702;52.982;6.658;2022-12-19T00:33:59;96.50;;;37.00;;
58864;SDS011;45702;52.982;6.658;2022-12-19T00:36:26;83.78;;;35.13;;
58864;SDS011;45702;52.982;6.658;2022-12-19T00:38:53;95.95;;;35.88;;
58864;SDS011;45702;52.982;6.658;2022-12-19T00:41:20;87.03;;;34.13;;
58864;SDS011;45702;52.982;6.658;2022-12-19T00:43:50;89.38;;;34.70;;
58864;SDS011;45702;52.982;6.658;2022-12-19T00:46:16;86.72;;;35.05;;
58864;SDS011;45702;52.982;6.658;2022-12-19T00:48:42;81.03;;;33.75;;
58864;SDS011;45702;52.982;6.658;2022-12-19T00:51:10;89.35;;;35.25;;
58864;SDS011;45702;52.982;6.658;2022-12-19T00:53:36;91.95;;;36.00;;
58864;SDS011;45702;52.982;6.658;2022-12-19T00:56:03;92.07;;;35.30;;
58864;SDS011;45702;52.982;6.658;2022-12-19T00:58:29;90.57;;;34.78;;
58864;SDS011;45702;52.982;6.658;2022-12-19T01:00:55;82.63;;;34.25;;
58864;SDS011;45702;52.982;6.658;2022-12-19T01:03:22;93.90;;;36.85;;
58864;SDS011;45702;52.982;6.658;2022-12-19T01:05:51;84.70;;;34.30;;
58864;SDS011;45702;52.982;6.658;2022-12-19T01:08:17;94.07;;;35.17;;
58864;SDS011;45702;52.982;6.658;2022-12-19T01:10:47;84.60;;;36.08;;
58864;SDS011;45702;52.982;6.658;2022-12-19T01:13:15;89.28;;;34.67;;
58864;SDS011;45702;52.982;6.658;2022-12-19T01:15:41;81.47;;;33.00;;
58864;SDS011;45702;52.982;6.658;2022-12-19T01:18:07;92.05;;;35.63;;
58864;SDS011;45702;52.982;6.658;2022-12-19T01:20:36;90.45;;;35.20;;
58864;SDS011;45702;52.982;6.658;2022-12-19T01:23:02;85.80;;;33.22;;
58864;SDS011;45702;52.982;6.658;2022-12-19T01:25:29;85.30;;;33.63;;
58864;SDS011;45702;52.982;6.658;2022-12-19T01:27:55;83.47;;;35.00;;
58864;SDS011;45702;52.982;6.658;2022-12-19T01:30:21;83.35;;;33.67;;
58864;SDS011;45702;52.982;6.658;2022-12-19T01:32:47;97.13;;;35.42;;
58864;SDS011;45702;52.982;6.658;2022-12-19T01:35:13;87.57;;;34.22;;
58864;SDS011;45702;52.982;6.658;2022-12-19T01:37:39;88.65;;;34.38;;
58864;SDS011;45702;52.982;6.658;2022-12-19T01:40:05;93.43;;;36.15;;
58864;SDS011;45702;52.982;6.658;2022-12-19T01:42:35;86.82;;;35.42;;
58864;SDS011;45702;52.982;6.658;2022-12-19T01:47:44;86.78;;;33.25;;
58864;SDS011;45702;52.982;6.658;2022-12-19T01:50:12;88.90;;;34.88;;
58864;SDS011;45702;52.982;6.658;2022-12-19T01:52:40;88.63;;;34.58;;
58864;SDS011;45702;52.982;6.658;2022-12-19T01:55:06;90.82;;;35.35;;
58864;SDS011;45702;52.982;6.658;2022-12-19T01:57:32;95.65;;;35.70;;
58864;SDS011;45702;52.982;6.658;2022-12-19T01:59:59;93.72;;;35.80;;
58864;SDS011;45702;52.982;6.658;2022-12-19T02:05:23;89.55;;;34.00;;
58864;SDS011;45702;52.982;6.658;2022-12-19T02:07:49;91.85;;;34.13;;
58864;SDS011;45702;52.982;6.658;2022-12-19T02:10:16;89.30;;;34.92;;
58864;SDS011;45702;52.982;6.658;2022-12-19T02:12:42;92.95;;;34.92;;
58864;SDS011;45702;52.982;6.658;2022-12-19T02:15:09;95.13;;;34.97;;
58864;SDS011;45702;52.982;6.658;2022-12-19T02:36:17;105.22;;;36.10;;
58864;SDS011;45702;52.982;6.658;2022-12-19T02:38:49;108.78;;;38.60;;
58864;SDS011;45702;52.982;6.658;2022-12-19T02:41:25;109.18;;;39.15;;
58864;SDS011;45702;52.982;6.658;2022-12-19T02:43:53;111.28;;;39.67;;
58864;SDS011;45702;52.982;6.658;2022-12-19T02:46:21;115.85;;;41.17;;
58864;SDS011;45702;52.982;6.658;2022-12-19T02:48:49;131.93;;;42.10;;
58864;SDS011;45702;52.982;6.658;2022-12-19T02:51:15;130.35;;;43.97;;
58864;SDS011;45702;52.982;6.658;2022-12-19T02:53:42;124.22;;;41.97;;
58864;SDS011;45702;52.982;6.658;2022-12-19T03:08:35;137.20;;;42.88;;
58864;SDS011;45702;52.982;6.658;2022-12-19T03:11:11;139.80;;;44.42;;
58864;SDS011;45702;52.982;6.658;2022-12-19T03:13:45;118.28;;;38.55;;
58864;SDS011;45702;52.982;6.658;2022-12-19T03:16:12;148.98;;;45.95;;
58864;SDS011;45702;52.982;6.658;2022-12-19T03:18:39;146.10;;;45.42;;
58864;SDS011;45702;52.982;6.658;2022-12-19T03:21:07;157.15;;;44.30;;
58864;SDS011;45702;52.982;6.658;2022-12-19T03:23:35;138.57;;;43.25;;
58864;SDS011;45702;52.982;6.658;2022-12-19T03:26:07;144.38;;;42.17;;
58864;SDS011;45702;52.982;6.658;2022-12-19T03:28:40;152.18;;;45.25;;
58864;SDS011;45702;52.982;6.658;2022-12-19T03:31:07;146.00;;;44.72;;
58864;SDS011;45702;52.982;6.658;2022-12-19T03:33:34;153.02;;;44.65;;
58864;SDS011;45702;52.982;6.658;2022-12-19T03:36:02;153.95;;;45.08;;
58864;SDS011;45702;52.982;6.658;2022-12-19T03:38:30;139.38;;;44.92;;
58864;SDS011;45702;52.982;6.658;2022-12-19T03:40:56;146.82;;;44.33;;
58864;SDS011;45702;52.982;6.658;2022-12-19T03:43:24;156.15;;;47.28;;
58864;SDS011;45702;52.982;6.658;2022-12-19T03:48:30;154.95;;;45.83;;
58864;SDS011;45702;52.982;6.658;2022-12-19T03:51:08;152.35;;;45.63;;
58864;SDS011;45702;52.982;6.658;2022-12-19T03:53:57;149.90;;;45.75;;
58864;SDS011;45702;52.982;6.658;2022-12-19T03:56:28;153.20;;;45.15;;
58864;SDS011;45702;52.982;6.658;2022-12-19T04:01:40;141.60;;;43.90;;
58864;SDS011;45702;52.982;6.658;2022-12-19T04:04:07;145.35;;;43.42;;
58864;SDS011;45702;52.982;6.658;2022-12-19T04:06:33;146.88;;;45.70;;
58864;SDS011;45702;52.982;6.658;2022-12-19T04:09:00;142.63;;;44.83;;
58864;SDS011;45702;52.982;6.658;2022-12-19T04:11:28;146.00;;;45.65;;
58864;SDS011;45702;52.982;6.658;2022-12-19T04:14:03;140.05;;;42.53;;
58864;SDS011;45702;52.982;6.658;2022-12-19T04:19:02;133.57;;;44.00;;
58864;SDS011;45702;52.982;6.658;2022-12-19T04:21:31;132.90;;;41.20;;
58864;SDS011;45702;52.982;6.658;2022-12-19T04:24:01;130.05;;;41.25;;
58864;SDS011;45702;52.982;6.658;2022-12-19T04:26:29;136.00;;;44.17;;
58864;SDS011;45702;52.982;6.658;2022-12-19T04:28:57;115.35;;;37.13;;
58864;SDS011;45702;52.982;6.658;2022-12-19T04:31:25;125.97;;;41.80;;
58864;SDS011;45702;52.982;6.658;2022-12-19T04:33:51;136.88;;;43.40;;
58864;SDS011;45702;52.982;6.658;2022-12-19T04:36:17;142.25;;;44.35;;
58864;SDS011;45702;52.982;6.658;2022-12-19T04:38:43;131.05;;;41.25;;
58864;SDS011;45702;52.982;6.658;2022-12-19T04:41:09;134.85;;;44.70;;
58864;SDS011;45702;52.982;6.658;2022-12-19T04:43:36;131.73;;;41.42;;
58864;SDS011;45702;52.982;6.658;2022-12-19T04:46:02;135.60;;;42.08;;
58864;SDS011;45702;52.982;6.658;2022-12-19T04:48:28;125.05;;;42.38;;
58864;SDS011;45702;52.982;6.658;2022-12-19T04:50:54;139.80;;;47.38;;
58864;SDS011;45702;52.982;6.658;2022-12-19T04:53:21;137.55;;;44.85;;
58864;SDS011;45702;52.982;6.658;2022-12-19T04:55:47;116.60;;;40.88;;
58864;SDS011;45702;52.982;6.658;2022-12-19T04:58:13;123.57;;;43.47;;
58864;SDS011;45702;52.982;6.658;2022-12-19T05:00:39;108.03;;;35.47;;
58864;SDS011;45702;52.982;6.658;2022-12-19T05:03:05;129.35;;;45.78;;
58864;SDS011;45702;52.982;6.658;2022-12-19T05:05:31;116.20;;;39.13;;
58864;SDS011;45702;52.982;6.658;2022-12-19T05:07:57;140.32;;;44.80;;
58864;SDS011;45702;52.982;6.658;2022-12-19T05:10:23;122.05;;;39.50;;
58864;SDS011;45702;52.982;6.658;2022-12-19T05:12:49;125.07;;;42.88;;
58864;SDS011;45702;52.982;6.658;2022-12-19T05:15:15;128.75;;;42.08;;
58864;SDS011;45702;52.982;6.658;2022-12-19T05:17:41;111.82;;;35.60;;
58864;SDS011;45702;52.982;6.658;2022-12-19T05:20:07;130.70;;;42.70;;
58864;SDS011;45702;52.982;6.658;2022-12-19T05:22:34;125.55;;;41.33;;
58864;SDS011;45702;52.982;6.658;2022-12-19T05:25:00;146.30;;;45.78;;
58864;SDS011;45702;52.982;6.658;2022-12-19T05:27:26;116.15;;;39.88;;
58864;SDS011;45702;52.982;6.658;2022-12-19T05:29:52;132.70;;;43.97;;
58864;SDS011;45702;52.982;6.658;2022-12-19T05:32:18;120.40;;;40.10;;
58864;SDS011;45702;52.982;6.658;2022-12-19T05:34:45;132.57;;;42.22;;
58864;SDS011;45702;52.982;6.658;2022-12-19T05:37:11;128.27;;;41.10;;
58864;SDS011;45702;52.982;6.658;2022-12-19T05:39:37;137.07;;;45.38;;
58864;SDS011;45702;52.982;6.658;2022-12-19T05:42:03;125.70;;;42.72;;
58864;SDS011;45702;52.982;6.658;2022-12-19T05:44:29;123.45;;;42.03;;
58864;SDS011;45702;52.982;6.658;2022-12-19T05:46:55;119.18;;;40.88;;
58864;SDS011;45702;52.982;6.658;2022-12-19T05:49:21;111.50;;;38.92;;
58864;SDS011;45702;52.982;6.658;2022-12-19T05:51:47;115.18;;;37.17;;
58864;SDS011;45702;52.982;6.658;2022-12-19T05:54:13;113.35;;;37.95;;
58864;SDS011;45702;52.982;6.658;2022-12-19T05:56:40;118.80;;;41.28;;
58864;SDS011;45702;52.982;6.658;2022-12-19T05:59:06;117.07;;;38.72;;
58864;SDS011;45702;52.982;6.658;2022-12-19T06:01:32;108.32;;;37.10;;
58864;SDS011;45702;52.982;6.658;2022-12-19T06:03:58;105.72;;;36.95;;
58864;SDS011;45702;52.982;6.658;2022-12-19T06:06:24;105.22;;;36.60;;
58864;SDS011;45702;52.982;6.658;2022-12-19T06:08:51;92.00;;;32.78;;
58864;SDS011;45702;52.982;6.658;2022-12-19T06:11:18;109.15;;;38.03;;
58864;SDS011;45702;52.982;6.658;2022-12-19T06:13:44;105.35;;;37.25;;
58864;SDS011;45702;52.982;6.658;2022-12-19T06:16:13;108.60;;;38.20;;
58864;SDS011;45702;52.982;6.658;2022-12-19T06:18:40;99.80;;;35.25;;
58864;SDS011;45702;52.982;6.658;2022-12-19T06:21:09;103.85;;;37.08;;
58864;SDS011;45702;52.982;6.658;2022-12-19T06:23:35;109.78;;;37.42;;
58864;SDS011;45702;52.982;6.658;2022-12-19T06:26:03;96.43;;;34.92;;
58864;SDS011;45702;52.982;6.658;2022-12-19T06:28:30;71.47;;;27.43;;
58864;SDS011;45702;52.982;6.658;2022-12-19T06:31:00;94.70;;;33.70;;
58864;SDS011;45702;52.982;6.658;2022-12-19T06:33:26;89.70;;;32.97;;
58864;SDS011;45702;52.982;6.658;2022-12-19T06:36:03;92.32;;;34.25;;
58864;SDS011;45702;52.982;6.658;2022-12-19T06:38:29;84.88;;;31.58;;
58864;SDS011;45702;52.982;6.658;2022-12-19T06:40:56;78.75;;;29.08;;
58864;SDS011;45702;52.982;6.658;2022-12-19T06:43:41;76.55;;;28.38;;
58864;SDS011;45702;52.982;6.658;2022-12-19T06:46:07;76.65;;;29.10;;
58864;SDS011;45702;52.982;6.658;2022-12-19T06:48:33;84.97;;;29.95;;
58864;SDS011;45702;52.982;6.658;2022-12-19T06:50:59;77.82;;;28.85;;
58864;SDS011;45702;52.982;6.658;2022-12-19T06:53:25;71.22;;;24.58;;
58864;SDS011;45702;52.982;6.658;2022-12-19T06:55:52;64.72;;;24.15;;
58864;SDS011;45702;52.982;6.658;2022-12-19T06:58:19;73.38;;;28.42;;
58864;SDS011;45702;52.982;6.658;2022-12-19T07:00:46;76.72;;;28.77;;
58864;SDS011;45702;52.982;6.658;2022-12-19T07:03:13;61.88;;;22.35;;
58864;SDS011;45702;52.982;6.658;2022-12-19T07:05:40;67.60;;;25.17;;
58864;SDS011;45702;52.982;6.658;2022-12-19T07:08:07;77.93;;;30.50;;
58864;SDS011;45702;52.982;6.658;2022-12-19T07:10:34;71.38;;;26.98;;
58864;SDS011;45702;52.982;6.658;2022-12-19T07:13:00;72.32;;;26.85;;
58864;SDS011;45702;52.982;6.658;2022-12-19T07:15:26;66.18;;;25.13;;
58864;SDS011;45702;52.982;6.658;2022-12-19T07:17:52;72.53;;;27.38;;
58864;SDS011;45702;52.982;6.658;2022-12-19T07:20:19;69.50;;;25.38;;
58864;SDS011;45702;52.982;6.658;2022-12-19T07:22:45;63.38;;;24.33;;
58864;SDS011;45702;52.982;6.658;2022-12-19T07:25:12;64.18;;;24.13;;
58864;SDS011;45702;52.982;6.658;2022-12-19T07:27:39;66.22;;;24.95;;
58864;SDS011;45702;52.982;6.658;2022-12-19T07:30:05;69.60;;;25.58;;
58864;SDS011;45702;52.982;6.658;2022-12-19T07:32:32;70.05;;;27.02;;
58864;SDS011;45702;52.982;6.658;2022-12-19T07:34:58;67.00;;;26.65;;
58864;SDS011;45702;52.982;6.658;2022-12-19T07:37:24;68.20;;;25.80;;
58864;SDS011;45702;52.982;6.658;2022-12-19T07:39:50;68.07;;;27.00;;
58864;SDS011;45702;52.982;6.658;2022-12-19T07:42:17;75.45;;;26.98;;
58864;SDS011;45702;52.982;6.658;2022-12-19T07:44:43;60.40;;;24.25;;
58864;SDS011;45702;52.982;6.658;2022-12-19T07:47:09;70.47;;;26.00;;
58864;SDS011;45702;52.982;6.658;2022-12-19T07:49:35;67.70;;;25.95;;
58864;SDS011;45702;52.982;6.658;2022-12-19T07:52:01;59.80;;;23.52;;
58864;SDS011;45702;52.982;6.658;2022-12-19T07:54:27;68.95;;;24.95;;
58864;SDS011;45702;52.982;6.658;2022-12-19T07:56:53;72.90;;;26.60;;
58864;SDS011;45702;52.982;6.658;2022-12-19T07:59:20;70.25;;;26.83;;
58864;SDS011;45702;52.982;6.658;2022-12-19T08:01:46;62.78;;;25.02;;
58864;SDS011;45702;52.982;6.658;2022-12-19T08:04:12;71.03;;;25.75;;
58864;SDS011;45702;52.982;6.658;2022-12-19T08:06:38;66.47;;;24.63;;
58864;SDS011;45702;52.982;6.658;2022-12-19T08:09:04;63.85;;;22.88;;
58864;SDS011;45702;52.982;6.658;2022-12-19T08:11:30;68.22;;;23.85;;
58864;SDS011;45702;52.982;6.658;2022-12-19T08:13:56;47.58;;;19.70;;
58864;SDS011;45702;52.982;6.658;2022-12-19T08:16:23;63.05;;;23.35;;
58864;SDS011;45702;52.982;6.658;2022-12-19T08:18:50;54.55;;;22.95;;
58864;SDS011;45702;52.982;6.658;2022-12-19T08:21:16;49.97;;;20.15;;
58864;SDS011;45702;52.982;6.658;2022-12-19T08:23:42;64.07;;;23.52;;
58864;SDS011;45702;52.982;6.658;2022-12-19T08:26:11;63.85;;;23.38;;
58864;SDS011;45702;52.982;6.658;2022-12-19T08:28:37;63.30;;;22.65;;
58864;SDS011;45702;52.982;6.658;2022-12-19T08:31:11;57.33;;;22.60;;
58864;SDS011;45702;52.982;6.658;2022-12-19T08:33:38;60.25;;;23.05;;
58864;SDS011;45702;52.982;6.658;2022-12-19T08:36:05;50.85;;;20.55;;
58864;SDS011;45702;52.982;6.658;2022-12-19T08:38:32;59.50;;;23.75;;
58864;SDS011;45702;52.982;6.658;2022-12-19T08:40:58;62.90;;;24.08;;
58864;SDS011;45702;52.982;6.658;2022-12-19T08:43:25;62.25;;;23.80;;
58864;SDS011;45702;52.982;6.658;2022-12-19T08:45:51;57.53;;;23.40;;
58864;SDS011;45702;52.982;6.658;2022-12-19T08:48:17;56.33;;;23.60;;
58864;SDS011;45702;52.982;6.658;2022-12-19T08:50:53;55.25;;;21.25;;
58864;SDS011;45702;52.982;6.658;2022-12-19T08:53:19;56.17;;;23.88;;
58864;SDS011;45702;52.982;6.658;2022-12-19T08:55:46;55.05;;;22.67;;
58864;SDS011;45702;52.982;6.658;2022-12-19T08:58:13;45.25;;;19.42;;
58864;SDS011;45702;52.982;6.658;2022-12-19T09:00:39;40.25;;;16.70;;
58864;SDS011;45702;52.982;6.658;2022-12-19T09:03:05;48.60;;;20.63;;
58864;SDS011;45702;52.982;6.658;2022-12-19T09:05:31;49.13;;;22.02;;
58864;SDS011;45702;52.982;6.658;2022-12-19T09:07:57;52.38;;;23.33;;
58864;SDS011;45702;52.982;6.658;2022-12-19T09:10:23;47.90;;;22.10;;
58864;SDS011;45702;52.982;6.658;2022-12-19T09:12:49;51.67;;;21.85;;
58864;SDS011;45702;52.982;6.658;2022-12-19T09:15:15;56.60;;;23.33;;
58864;SDS011;45702;52.982;6.658;2022-12-19T09:17:41;58.78;;;24.15;;
58864;SDS011;45702;52.982;6.658;2022-12-19T09:20:07;56.22;;;23.75;;
58864;SDS011;45702;52.982;6.658;2022-12-19T09:22:34;58.10;;;24.98;;
58864;SDS011;45702;52.982;6.658;2022-12-19T09:25:00;45.65;;;21.13;;
58864;SDS011;45702;52.982;6.658;2022-12-19T09:27:26;58.13;;;24.88;;
58864;SDS011;45702;52.982;6.658;2022-12-19T09:29:52;45.60;;;20.08;;
58864;SDS011;45702;52.982;6.658;2022-12-19T09:32:18;61.80;;;26.23;;
58864;SDS011;45702;52.982;6.658;2022-12-19T09:34:45;60.13;;;25.30;;
58864;SDS011;45702;52.982;6.658;2022-12-19T09:37:11;58.45;;;24.13;;
58864;SDS011;45702;52.982;6.658;2022-12-19T09:39:37;62.35;;;24.75;;
58864;SDS011;45702;52.982;6.658;2022-12-19T09:47:28;66.78;;;27.73;;
58864;SDS011;45702;52.982;6.658;2022-12-19T09:49:54;66.20;;;27.83;;
58864;SDS011;45702;52.982;6.658;2022-12-19T09:52:36;65.07;;;27.25;;
58864;SDS011;45702;52.982;6.658;2022-12-19T09:55:17;67.90;;;28.52;;
58864;SDS011;45702;52.982;6.658;2022-12-19T09:57:46;68.53;;;28.75;;
58864;SDS011;45702;52.982;6.658;2022-12-19T10:00:18;55.08;;;22.38;;
58864;SDS011;45702;52.982;6.658;2022-12-19T10:05:30;70.05;;;28.63;;
58864;SDS011;45702;52.982;6.658;2022-12-19T10:07:58;62.45;;;24.77;;
58864;SDS011;45702;52.982;6.658;2022-12-19T10:25:28;61.95;;;24.38;;
58864;SDS011;45702;52.982;6.658;2022-12-19T10:27:57;60.97;;;24.60;;
58864;SDS011;45702;52.982;6.658;2022-12-19T10:30:26;59.38;;;25.20;;
58864;SDS011;45702;52.982;6.658;2022-12-19T10:35:32;61.70;;;25.67;;
58864;SDS011;45702;52.982;6.658;2022-12-19T10:38:18;64.72;;;27.17;;
58864;SDS011;45702;52.982;6.658;2022-12-19T10:43:23;55.55;;;25.27;;
58864;SDS011;45702;52.982;6.658;2022-12-19T10:45:56;61.88;;;25.60;;
58864;SDS011;45702;52.982;6.658;2022-12-19T10:48:23;57.75;;;25.63;;
58864;SDS011;45702;52.982;6.658;2022-12-19T10:50:49;56.97;;;25.95;;
58864;SDS011;45702;52.982;6.658;2022-12-19T10:53:17;54.67;;;23.73;;
58864;SDS011;45702;52.982;6.658;2022-12-19T10:55:50;59.60;;;25.25;;
58864;SDS011;45702;52.982;6.658;2022-12-19T11:03:31;48.22;;;21.63;;
58864;SDS011;45702;52.982;6.658;2022-12-19T11:05:58;51.70;;;22.70;;
58864;SDS011;45702;52.982;6.658;2022-12-19T11:08:30;47.78;;;23.70;;
58864;SDS011;45702;52.982;6.658;2022-12-19T11:16:07;48.00;;;23.23;;
58864;SDS011;45702;52.982;6.658;2022-12-19T11:23:32;46.35;;;21.63;;
58864;SDS011;45702;52.982;6.658;2022-12-19T11:25:59;46.63;;;22.13;;
58864;SDS011;45702;52.982;6.658;2022-12-19T11:28:44;42.78;;;21.35;;
58864;SDS011;45702;52.982;6.658;2022-12-19T11:31:20;46.22;;;20.05;;
58864;SDS011;45702;52.982;6.658;2022-12-19T11:33:52;42.53;;;21.25;;
58864;SDS011;45702;52.982;6.658;2022-12-19T11:36:27;44.30;;;21.10;;
58864;SDS011;45702;52.982;6.658;2022-12-19T11:38:55;46.00;;;23.05;;
58864;SDS011;45702;52.982;6.658;2022-12-19T11:41:36;47.10;;;21.90;;
58864;SDS011;45702;52.982;6.658;2022-12-19T11:44:05;48.72;;;22.73;;
58864;SDS011;45702;52.982;6.658;2022-12-19T11:46:43;48.25;;;21.83;;
58864;SDS011;45702;52.982;6.658;2022-12-19T11:49:26;48.22;;;22.10;;
58864;SDS011;45702;52.982;6.658;2022-12-19T11:51:55;43.63;;;21.45;;
58864;SDS011;45702;52.982;6.658;2022-12-19T11:56:49;43.75;;;21.35;;
58864;SDS011;45702;52.982;6.658;2022-12-19T11:59:17;41.50;;;19.80;;
58864;SDS011;45702;52.982;6.658;2022-12-19T12:04:32;45.33;;;21.40;;
58864;SDS011;45702;52.982;6.658;2022-12-19T12:07:03;40.65;;;20.23;;
58864;SDS011;45702;52.982;6.658;2022-12-19T12:09:34;44.67;;;21.70;;
58864;SDS011;45702;52.982;6.658;2022-12-19T12:22:05;40.42;;;20.85;;
58864;SDS011;45702;52.982;6.658;2022-12-19T12:24:49;44.17;;;21.88;;
58864;SDS011;45702;52.982;6.658;2022-12-19T12:38:06;43.80;;;20.77;;
58864;SDS011;45702;52.982;6.658;2022-12-19T12:43:57;42.95;;;21.83;;
58864;SDS011;45702;52.982;6.658;2022-12-19T12:45:54;47.70;;;22.55;;
58864;SDS011;45702;52.982;6.658;2022-12-19T12:50:46;37.88;;;19.55;;
58864;SDS011;45702;52.982;6.658;2022-12-19T12:53:14;40.47;;;20.35;;
58864;SDS011;45702;52.982;6.658;2022-12-19T12:55:42;40.92;;;20.38;;
58864;SDS011;45702;52.982;6.658;2022-12-19T13:01:06;42.13;;;21.05;;
58864;SDS011;45702;52.982;6.658;2022-12-19T13:03:33;39.65;;;20.55;;
58864;SDS011;45702;52.982;6.658;2022-12-19T13:06:06;41.20;;;20.63;;
58864;SDS011;45702;52.982;6.658;2022-12-19T13:08:46;43.42;;;21.38;;
58864;SDS011;45702;52.982;6.658;2022-12-19T13:16:48;38.58;;;19.00;;
58864;SDS011;45702;52.982;6.658;2022-12-19T13:19:25;40.90;;;20.98;;
58864;SDS011;45702;52.982;6.658;2022-12-19T13:24:38;44.67;;;21.20;;
58864;SDS011;45702;52.982;6.658;2022-12-19T13:37:31;49.13;;;22.83;;
58864;SDS011;45702;52.982;6.658;2022-12-19T13:45:54;48.15;;;23.63;;
58864;SDS011;45702;52.982;6.658;2022-12-19T13:50:55;48.60;;;23.58;;
58864;SDS011;45702;52.982;6.658;2022-12-19T13:53:24;39.40;;;21.03;;
58864;SDS011;45702;52.982;6.658;2022-12-19T13:55:53;43.30;;;21.08;;
58864;SDS011;45702;52.982;6.658;2022-12-19T13:58:21;42.05;;;21.50;;
58864;SDS011;45702;52.982;6.658;2022-12-19T14:00:48;41.67;;;20.83;;
58864;SDS011;45702;52.982;6.658;2022-12-19T14:03:16;34.65;;;17.65;;
58864;SDS011;45702;52.982;6.658;2022-12-19T14:05:43;39.30;;;19.60;;
58864;SDS011;45702;52.982;6.658;2022-12-19T14:08:11;36.05;;;18.63;;
58864;SDS011;45702;52.982;6.658;2022-12-19T14:10:42;38.20;;;20.58;;
58864;SDS011;45702;52.982;6.658;2022-12-19T14:13:15;35.53;;;19.83;;
58864;SDS011;45702;52.982;6.658;2022-12-19T14:16:00;29.95;;;16.42;;
58864;SDS011;45702;52.982;6.658;2022-12-19T14:18:28;35.08;;;18.48;;
58864;SDS011;45702;52.982;6.658;2022-12-19T14:27:01;33.75;;;16.98;;
58864;SDS011;45702;52.982;6.658;2022-12-19T14:29:30;35.53;;;17.23;;
58864;SDS011;45702;52.982;6.658;2022-12-19T14:31:57;32.13;;;16.67;;
58864;SDS011;45702;52.982;6.658;2022-12-19T14:34:24;28.75;;;14.63;;
58864;SDS011;45702;52.982;6.658;2022-12-19T14:36:53;26.95;;;14.60;;
58864;SDS011;45702;52.982;6.658;2022-12-19T14:39:21;31.80;;;17.47;;
58864;SDS011;45702;52.982;6.658;2022-12-19T14:41:48;30.13;;;15.43;;
58864;SDS011;45702;52.982;6.658;2022-12-19T14:44:50;26.98;;;15.00;;
58864;SDS011;45702;52.982;6.658;2022-12-19T14:47:23;28.83;;;14.80;;
58864;SDS011;45702;52.982;6.658;2022-12-19T14:49:50;27.30;;;15.07;;
58864;SDS011;45702;52.982;6.658;2022-12-19T14:57:43;30.83;;;15.35;;
58864;SDS011;45702;52.982;6.658;2022-12-19T15:00:28;26.02;;;14.43;;
58864;SDS011;45702;52.982;6.658;2022-12-19T15:02:56;31.50;;;15.27;;
58864;SDS011;45702;52.982;6.658;2022-12-19T15:05:23;30.88;;;15.20;;
58864;SDS011;45702;52.982;6.658;2022-12-19T15:07:50;28.33;;;14.30;;
58864;SDS011;45702;52.982;6.658;2022-12-19T15:10:21;29.83;;;15.13;;
58864;SDS011;45702;52.982;6.658;2022-12-19T15:18:23;21.10;;;10.73;;
58864;SDS011;45702;52.982;6.658;2022-12-19T15:20:50;25.60;;;13.25;;
58864;SDS011;45702;52.982;6.658;2022-12-19T15:23:17;24.85;;;12.55;;
58864;SDS011;45702;52.982;6.658;2022-12-19T15:25:43;22.90;;;13.68;;
58864;SDS011;45702;52.982;6.658;2022-12-19T15:28:13;26.73;;;13.10;;
58864;SDS011;45702;52.982;6.658;2022-12-19T15:30:41;23.38;;;12.48;;
58864;SDS011;45702;52.982;6.658;2022-12-19T15:33:11;24.92;;;13.48;;
58864;SDS011;45702;52.982;6.658;2022-12-19T15:35:38;28.98;;;13.80;;
58864;SDS011;45702;52.982;6.658;2022-12-19T15:38:04;27.10;;;14.35;;
58864;SDS011;45702;52.982;6.658;2022-12-19T15:40:30;27.10;;;14.23;;
58864;SDS011;45702;52.982;6.658;2022-12-19T15:42:56;26.38;;;14.15;;
58864;SDS011;45702;52.982;6.658;2022-12-19T15:48:16;28.00;;;14.25;;
58864;SDS011;45702;52.982;6.658;2022-12-19T15:50:56;27.20;;;14.57;;
58864;SDS011;45702;52.982;6.658;2022-12-19T15:53:26;29.05;;;14.98;;
58864;SDS011;45702;52.982;6.658;2022-12-19T15:55:53;29.45;;;14.65;;
58864;SDS011;45702;52.982;6.658;2022-12-19T15:58:21;27.63;;;13.95;;
58864;SDS011;45702;52.982;6.658;2022-12-19T16:00:50;27.83;;;14.52;;
58864;SDS011;45702;52.982;6.658;2022-12-19T16:03:17;28.92;;;15.00;;
58864;SDS011;45702;52.982;6.658;2022-12-19T16:05:44;32.70;;;14.90;;
58864;SDS011;45702;52.982;6.658;2022-12-19T16:08:20;28.70;;;14.00;;
58864;SDS011;45702;52.982;6.658;2022-12-19T16:10:48;30.50;;;14.88;;
58864;SDS011;45702;52.982;6.658;2022-12-19T16:15:41;31.30;;;15.88;;
58864;SDS011;45702;52.982;6.658;2022-12-19T16:18:08;30.50;;;16.05;;
58864;SDS011;45702;52.982;6.658;2022-12-19T16:23:04;32.00;;;16.60;;
58864;SDS011;45702;52.982;6.658;2022-12-19T16:25:51;31.65;;;15.90;;
58864;SDS011;45702;52.982;6.658;2022-12-19T16:28:24;32.03;;;16.02;;
58864;SDS011;45702;52.982;6.658;2022-12-19T16:30:51;32.17;;;15.23;;
58864;SDS011;45702;52.982;6.658;2022-12-19T16:33:18;27.20;;;14.18;;
58864;SDS011;45702;52.982;6.658;2022-12-19T16:35:44;32.10;;;15.82;;
58864;SDS011;45702;52.982;6.658;2022-12-19T16:38:11;31.63;;;14.75;;
58864;SDS011;45702;52.982;6.658;2022-12-19T16:40:37;26.10;;;12.60;;
58864;SDS011;45702;52.982;6.658;2022-12-19T16:43:04;31.88;;;16.00;;
58864;SDS011;45702;52.982;6.658;2022-12-19T16:45:31;32.00;;;16.58;;
58864;SDS011;45702;52.982;6.658;2022-12-19T16:47:58;32.53;;;15.85;;
58864;SDS011;45702;52.982;6.658;2022-12-19T16:50:29;30.08;;;15.63;;
58864;SDS011;45702;52.982;6.658;2022-12-19T16:52:55;31.45;;;15.95;;
58864;SDS011;45702;52.982;6.658;2022-12-19T16:55:23;31.52;;;16.10;;
58864;SDS011;45702;52.982;6.658;2022-12-19T16:57:49;33.10;;;16.17;;
58864;SDS011;45702;52.982;6.658;2022-12-19T17:00:19;28.23;;;15.82;;
58864;SDS011;45702;52.982;6.658;2022-12-19T17:05:13;33.40;;;17.02;;
58864;SDS011;45702;52.982;6.658;2022-12-19T17:07:40;32.25;;;16.20;;
58864;SDS011;45702;52.982;6.658;2022-12-19T17:10:06;30.63;;;16.02;;
58864;SDS011;45702;52.982;6.658;2022-12-19T17:12:32;28.40;;;13.05;;
58864;SDS011;45702;52.982;6.658;2022-12-19T17:15:06;34.00;;;16.00;;
58864;SDS011;45702;52.982;6.658;2022-12-19T17:17:33;33.35;;;17.48;;
58864;SDS011;45702;52.982;6.658;2022-12-19T17:19:59;36.42;;;18.52;;
58864;SDS011;45702;52.982;6.658;2022-12-19T17:22:25;35.15;;;17.05;;